sensor_id;sensor_type;location;lat;lon;timestamp;P1;durP1;ratioP1;P2;durP2;ratioP2
74920;SDS011;63483;47.384;8.860;2022-12-19T00:00:46;22.63;;;10.03;;
74920;SDS011;63483;47.384;8.860;2022-12-19T00:03:12;21.10;;;9.65;;
74920;SDS011;63483;47.384;8.860;2022-12-19T00:05:38;22.03;;;9.80;;
74920;SDS011;63483;47.384;8.860;2022-12-19T00:08:05;19.30;;;9.15;;
74920;SDS011;63483;47.384;8.860;2022-12-19T00:10:36;21.70;;;9.48;;
74920;SDS011;63483;47.384;8.860;2022-12-19T00:13:02;20.00;;;9.07;;
74920;SDS011;63483;47.384;8.860;2022-12-19T00:15:27;20.33;;;9.97;;
74920;SDS011;63483;47.384;8.860;2022-12-19T00:17:53;18.87;;;9.17;;
74920;SDS011;63483;47.384;8.860;2022-12-19T00:20:18;21.75;;;9.45;;
74920;SDS011;63483;47.384;8.860;2022-12-19T00:22:43;20.40;;;8.53;;
74920;SDS011;63483;47.384;8.860;2022-12-19T00:25:09;18.63;;;8.27;;
74920;SDS011;63483;47.384;8.860;2022-12-19T00:27:34;21.03;;;9.30;;
74920;SDS011;63483;47.384;8.860;2022-12-19T00:30:00;20.60;;;9.18;;
74920;SDS011;63483;47.384;8.860;2022-12-19T00:32:26;17.13;;;8.63;;
74920;SDS011;63483;47.384;8.860;2022-12-19T00:34:51;16.37;;;8.00;;
74920;SDS011;63483;47.384;8.860;2022-12-19T00:37:16;15.07;;;6.80;;
74920;SDS011;63483;47.384;8.860;2022-12-19T00:39:42;14.87;;;7.10;;
74920;SDS011;63483;47.384;8.860;2022-12-19T00:42:07;14.87;;;7.00;;
74920;SDS011;63483;47.384;8.860;2022-12-19T00:44:32;16.10;;;7.37;;
74920;SDS011;63483;47.384;8.860;2022-12-19T00:46:58;17.37;;;6.70;;
74920;SDS011;63483;47.384;8.860;2022-12-19T00:49:23;15.87;;;7.10;;
74920;SDS011;63483;47.384;8.860;2022-12-19T00:51:48;14.10;;;6.10;;
74920;SDS011;63483;47.384;8.860;2022-12-19T00:54:14;15.57;;;7.20;;
74920;SDS011;63483;47.384;8.860;2022-12-19T00:56:39;11.95;;;5.35;;
74920;SDS011;63483;47.384;8.860;2022-12-19T00:59:04;11.00;;;5.03;;
74920;SDS011;63483;47.384;8.860;2022-12-19T01:01:31;10.80;;;4.43;;
74920;SDS011;63483;47.384;8.860;2022-12-19T01:03:59;11.75;;;5.57;;
74920;SDS011;63483;47.384;8.860;2022-12-19T01:06:25;11.70;;;5.18;;
74920;SDS011;63483;47.384;8.860;2022-12-19T01:08:52;9.90;;;4.90;;
74920;SDS011;63483;47.384;8.860;2022-12-19T01:11:17;11.13;;;5.23;;
74920;SDS011;63483;47.384;8.860;2022-12-19T01:14:03;8.88;;;4.70;;
74920;SDS011;63483;47.384;8.860;2022-12-19T01:16:28;10.33;;;5.50;;
74920;SDS011;63483;47.384;8.860;2022-12-19T01:18:53;8.03;;;3.83;;
74920;SDS011;63483;47.384;8.860;2022-12-19T01:21:19;7.77;;;3.77;;
74920;SDS011;63483;47.384;8.860;2022-12-19T01:23:44;7.87;;;3.87;;
74920;SDS011;63483;47.384;8.860;2022-12-19T01:26:09;8.00;;;3.53;;
74920;SDS011;63483;47.384;8.860;2022-12-19T01:28:35;6.33;;;3.33;;
74920;SDS011;63483;47.384;8.860;2022-12-19T01:31:03;9.07;;;4.80;;
74920;SDS011;63483;47.384;8.860;2022-12-19T01:33:29;10.93;;;5.32;;
74920;SDS011;63483;47.384;8.860;2022-12-19T01:35:54;8.70;;;4.33;;
74920;SDS011;63483;47.384;8.860;2022-12-19T01:38:20;7.93;;;3.47;;
74920;SDS011;63483;47.384;8.860;2022-12-19T01:40:53;7.38;;;4.40;;
74920;SDS011;63483;47.384;8.860;2022-12-19T01:43:21;8.45;;;4.20;;
74920;SDS011;63483;47.384;8.860;2022-12-19T01:45:48;6.22;;;3.42;;
74920;SDS011;63483;47.384;8.860;2022-12-19T01:50:57;4.72;;;2.75;;
74920;SDS011;63483;47.384;8.860;2022-12-19T01:53:28;7.35;;;3.38;;
74920;SDS011;63483;47.384;8.860;2022-12-19T01:55:57;5.65;;;2.35;;
74920;SDS011;63483;47.384;8.860;2022-12-19T01:58:24;5.53;;;2.70;;
74920;SDS011;63483;47.384;8.860;2022-12-19T02:00:50;3.80;;;2.30;;
74920;SDS011;63483;47.384;8.860;2022-12-19T02:03:18;4.40;;;1.60;;
74920;SDS011;63483;47.384;8.860;2022-12-19T02:05:49;3.72;;;2.03;;
74920;SDS011;63483;47.384;8.860;2022-12-19T02:08:16;4.88;;;2.42;;
74920;SDS011;63483;47.384;8.860;2022-12-19T02:10:42;3.38;;;1.85;;
74920;SDS011;63483;47.384;8.860;2022-12-19T02:13:07;3.10;;;1.73;;
74920;SDS011;63483;47.384;8.860;2022-12-19T02:15:35;3.47;;;2.08;;
74920;SDS011;63483;47.384;8.860;2022-12-19T02:18:17;2.70;;;1.45;;
74920;SDS011;63483;47.384;8.860;2022-12-19T02:29:02;3.40;;;1.10;;
74920;SDS011;63483;47.384;8.860;2022-12-19T02:31:45;2.80;;;1.20;;
74920;SDS011;63483;47.384;8.860;2022-12-19T02:37:06;2.47;;;0.97;;
74920;SDS011;63483;47.384;8.860;2022-12-19T02:42:38;2.95;;;1.50;;
74920;SDS011;63483;47.384;8.860;2022-12-19T02:45:09;2.65;;;1.52;;
74920;SDS011;63483;47.384;8.860;2022-12-19T02:47:38;2.70;;;1.20;;
74920;SDS011;63483;47.384;8.860;2022-12-19T02:50:04;2.70;;;1.50;;
74920;SDS011;63483;47.384;8.860;2022-12-19T02:55:06;4.87;;;2.23;;
74920;SDS011;63483;47.384;8.860;2022-12-19T03:00:20;4.63;;;2.28;;
74920;SDS011;63483;47.384;8.860;2022-12-19T03:02:56;5.80;;;2.80;;
74920;SDS011;63483;47.384;8.860;2022-12-19T03:08:31;6.38;;;3.47;;
74920;SDS011;63483;47.384;8.860;2022-12-19T03:11:01;6.65;;;3.58;;
74920;SDS011;63483;47.384;8.860;2022-12-19T03:13:55;6.93;;;3.72;;
74920;SDS011;63483;47.384;8.860;2022-12-19T03:16:25;6.05;;;3.35;;
74920;SDS011;63483;47.384;8.860;2022-12-19T03:18:52;7.07;;;3.40;;
74920;SDS011;63483;47.384;8.860;2022-12-19T03:23:53;6.75;;;3.25;;
74920;SDS011;63483;47.384;8.860;2022-12-19T03:26:21;7.87;;;3.03;;
74920;SDS011;63483;47.384;8.860;2022-12-19T03:31:33;5.88;;;3.35;;
74920;SDS011;63483;47.384;8.860;2022-12-19T03:34:04;4.93;;;2.60;;
74920;SDS011;63483;47.384;8.860;2022-12-19T03:36:38;7.63;;;3.00;;
74920;SDS011;63483;47.384;8.860;2022-12-19T03:39:07;6.53;;;3.33;;
74920;SDS011;63483;47.384;8.860;2022-12-19T03:41:34;5.63;;;3.40;;
74920;SDS011;63483;47.384;8.860;2022-12-19T03:44:20;6.10;;;2.80;;
74920;SDS011;63483;47.384;8.860;2022-12-19T03:46:50;5.20;;;3.17;;
74920;SDS011;63483;47.384;8.860;2022-12-19T03:49:22;6.00;;;3.10;;
74920;SDS011;63483;47.384;8.860;2022-12-19T03:51:51;5.55;;;2.80;;
74920;SDS011;63483;47.384;8.860;2022-12-19T03:54:26;4.78;;;2.53;;
74920;SDS011;63483;47.384;8.860;2022-12-19T03:56:57;4.60;;;2.10;;
74920;SDS011;63483;47.384;8.860;2022-12-19T03:59:32;5.00;;;1.83;;
74920;SDS011;63483;47.384;8.860;2022-12-19T04:02:07;2.90;;;1.40;;
74920;SDS011;63483;47.384;8.860;2022-12-19T04:04:36;3.50;;;1.90;;
74920;SDS011;63483;47.384;8.860;2022-12-19T04:07:05;3.50;;;1.85;;
74920;SDS011;63483;47.384;8.860;2022-12-19T04:09:33;2.25;;;1.48;;
74920;SDS011;63483;47.384;8.860;2022-12-19T04:12:02;2.80;;;1.83;;
74920;SDS011;63483;47.384;8.860;2022-12-19T04:14:32;3.63;;;1.52;;
74920;SDS011;63483;47.384;8.860;2022-12-19T04:22:30;3.90;;;1.73;;
74920;SDS011;63483;47.384;8.860;2022-12-19T04:25:02;2.83;;;1.10;;
74920;SDS011;63483;47.384;8.860;2022-12-19T04:27:34;2.80;;;1.60;;
74920;SDS011;63483;47.384;8.860;2022-12-19T04:30:02;2.47;;;1.77;;
74920;SDS011;63483;47.384;8.860;2022-12-19T04:32:29;4.30;;;2.13;;
74920;SDS011;63483;47.384;8.860;2022-12-19T04:34:58;2.72;;;1.80;;
74920;SDS011;63483;47.384;8.860;2022-12-19T04:37:23;3.33;;;1.73;;
74920;SDS011;63483;47.384;8.860;2022-12-19T04:39:49;1.97;;;1.03;;
74920;SDS011;63483;47.384;8.860;2022-12-19T04:42:15;1.95;;;1.05;;
74920;SDS011;63483;47.384;8.860;2022-12-19T04:44:40;2.73;;;1.20;;
74920;SDS011;63483;47.384;8.860;2022-12-19T04:47:06;3.43;;;1.70;;
74920;SDS011;63483;47.384;8.860;2022-12-19T04:49:31;2.63;;;1.30;;
74920;SDS011;63483;47.384;8.860;2022-12-19T04:51:57;2.77;;;1.30;;
74920;SDS011;63483;47.384;8.860;2022-12-19T04:54:22;4.40;;;1.57;;
74920;SDS011;63483;47.384;8.860;2022-12-19T04:56:47;3.23;;;1.57;;
74920;SDS011;63483;47.384;8.860;2022-12-19T04:59:13;3.03;;;1.47;;
74920;SDS011;63483;47.384;8.860;2022-12-19T05:01:38;2.37;;;1.20;;
74920;SDS011;63483;47.384;8.860;2022-12-19T05:04:03;2.73;;;1.43;;
74920;SDS011;63483;47.384;8.860;2022-12-19T05:06:28;2.35;;;1.52;;
74920;SDS011;63483;47.384;8.860;2022-12-19T05:08:54;2.40;;;1.27;;
74920;SDS011;63483;47.384;8.860;2022-12-19T05:11:19;3.30;;;1.63;;
74920;SDS011;63483;47.384;8.860;2022-12-19T05:13:45;2.43;;;1.57;;
74920;SDS011;63483;47.384;8.860;2022-12-19T05:16:11;2.38;;;1.40;;
74920;SDS011;63483;47.384;8.860;2022-12-19T05:18:37;2.57;;;1.57;;
74920;SDS011;63483;47.384;8.860;2022-12-19T05:21:03;1.83;;;0.95;;
74920;SDS011;63483;47.384;8.860;2022-12-19T05:23:29;3.40;;;2.17;;
74920;SDS011;63483;47.384;8.860;2022-12-19T05:25:58;2.40;;;1.43;;
74920;SDS011;63483;47.384;8.860;2022-12-19T05:28:24;2.38;;;1.70;;
74920;SDS011;63483;47.384;8.860;2022-12-19T05:30:50;2.87;;;1.27;;
74920;SDS011;63483;47.384;8.860;2022-12-19T05:33:15;2.50;;;1.20;;
74920;SDS011;63483;47.384;8.860;2022-12-19T05:35:40;2.20;;;1.27;;
74920;SDS011;63483;47.384;8.860;2022-12-19T05:38:06;2.90;;;1.70;;
74920;SDS011;63483;47.384;8.860;2022-12-19T05:40:31;2.80;;;1.43;;
74920;SDS011;63483;47.384;8.860;2022-12-19T05:42:57;2.60;;;1.63;;
74920;SDS011;63483;47.384;8.860;2022-12-19T05:45:22;2.07;;;1.13;;
74920;SDS011;63483;47.384;8.860;2022-12-19T05:47:47;2.77;;;1.80;;
74920;SDS011;63483;47.384;8.860;2022-12-19T05:50:14;2.77;;;2.00;;
74920;SDS011;63483;47.384;8.860;2022-12-19T05:52:40;3.78;;;1.98;;
74920;SDS011;63483;47.384;8.860;2022-12-19T05:55:06;2.70;;;1.48;;
74920;SDS011;63483;47.384;8.860;2022-12-19T05:57:32;2.93;;;1.80;;
74920;SDS011;63483;47.384;8.860;2022-12-19T05:59:58;3.63;;;1.90;;
74920;SDS011;63483;47.384;8.860;2022-12-19T06:02:23;2.57;;;1.57;;
74920;SDS011;63483;47.384;8.860;2022-12-19T06:04:48;2.90;;;1.83;;
74920;SDS011;63483;47.384;8.860;2022-12-19T06:07:14;3.23;;;1.90;;
74920;SDS011;63483;47.384;8.860;2022-12-19T06:09:39;3.88;;;1.83;;
74920;SDS011;63483;47.384;8.860;2022-12-19T06:12:04;3.27;;;1.60;;
74920;SDS011;63483;47.384;8.860;2022-12-19T06:14:30;3.20;;;1.73;;
74920;SDS011;63483;47.384;8.860;2022-12-19T06:16:55;3.50;;;1.83;;
74920;SDS011;63483;47.384;8.860;2022-12-19T06:19:21;3.27;;;1.80;;
74920;SDS011;63483;47.384;8.860;2022-12-19T06:21:46;50.22;;;3.33;;
74920;SDS011;63483;47.384;8.860;2022-12-19T06:24:12;2.40;;;0.97;;
74920;SDS011;63483;47.384;8.860;2022-12-19T06:26:37;4.80;;;2.67;;
74920;SDS011;63483;47.384;8.860;2022-12-19T06:29:02;3.73;;;1.97;;
74920;SDS011;63483;47.384;8.860;2022-12-19T06:31:28;3.33;;;1.97;;
74920;SDS011;63483;47.384;8.860;2022-12-19T06:33:53;2.70;;;1.52;;
74920;SDS011;63483;47.384;8.860;2022-12-19T06:36:20;3.50;;;1.67;;
74920;SDS011;63483;47.384;8.860;2022-12-19T06:38:47;3.10;;;1.73;;
74920;SDS011;63483;47.384;8.860;2022-12-19T06:41:14;3.90;;;1.70;;
74920;SDS011;63483;47.384;8.860;2022-12-19T06:44:00;2.78;;;1.38;;
74920;SDS011;63483;47.384;8.860;2022-12-19T06:46:26;4.00;;;2.08;;
74920;SDS011;63483;47.384;8.860;2022-12-19T06:48:52;3.67;;;1.90;;
74920;SDS011;63483;47.384;8.860;2022-12-19T06:51:17;2.97;;;1.67;;
74920;SDS011;63483;47.384;8.860;2022-12-19T06:53:43;2.70;;;1.60;;
74920;SDS011;63483;47.384;8.860;2022-12-19T06:56:08;5.23;;;2.03;;
74920;SDS011;63483;47.384;8.860;2022-12-19T06:58:36;5.07;;;2.63;;
74920;SDS011;63483;47.384;8.860;2022-12-19T07:01:01;7.87;;;2.47;;
74920;SDS011;63483;47.384;8.860;2022-12-19T07:03:29;3.27;;;1.63;;
74920;SDS011;63483;47.384;8.860;2022-12-19T07:05:56;3.15;;;1.50;;
74920;SDS011;63483;47.384;8.860;2022-12-19T07:08:21;3.47;;;1.57;;
74920;SDS011;63483;47.384;8.860;2022-12-19T07:10:47;3.40;;;2.10;;
74920;SDS011;63483;47.384;8.860;2022-12-19T07:13:12;3.20;;;1.67;;
74920;SDS011;63483;47.384;8.860;2022-12-19T07:15:38;4.60;;;2.15;;
74920;SDS011;63483;47.384;8.860;2022-12-19T07:18:04;4.40;;;2.20;;
74920;SDS011;63483;47.384;8.860;2022-12-19T07:20:31;3.78;;;2.00;;
74920;SDS011;63483;47.384;8.860;2022-12-19T07:23:00;4.47;;;1.98;;
74920;SDS011;63483;47.384;8.860;2022-12-19T07:25:27;4.07;;;2.10;;
74920;SDS011;63483;47.384;8.860;2022-12-19T07:27:52;5.13;;;2.17;;
74920;SDS011;63483;47.384;8.860;2022-12-19T07:30:18;5.37;;;2.77;;
74920;SDS011;63483;47.384;8.860;2022-12-19T07:32:43;5.20;;;2.60;;
74920;SDS011;63483;47.384;8.860;2022-12-19T07:35:09;4.43;;;2.30;;
74920;SDS011;63483;47.384;8.860;2022-12-19T07:37:34;4.45;;;2.80;;
74920;SDS011;63483;47.384;8.860;2022-12-19T07:40:00;3.10;;;1.60;;
74920;SDS011;63483;47.384;8.860;2022-12-19T07:42:25;7.20;;;3.60;;
74920;SDS011;63483;47.384;8.860;2022-12-19T07:44:51;6.47;;;3.07;;
74920;SDS011;63483;47.384;8.860;2022-12-19T07:47:16;3.77;;;2.33;;
74920;SDS011;63483;47.384;8.860;2022-12-19T07:49:41;3.87;;;1.97;;
74920;SDS011;63483;47.384;8.860;2022-12-19T07:52:07;3.97;;;2.20;;
74920;SDS011;63483;47.384;8.860;2022-12-19T07:54:32;5.35;;;3.05;;
74920;SDS011;63483;47.384;8.860;2022-12-19T07:56:59;7.00;;;3.90;;
74920;SDS011;63483;47.384;8.860;2022-12-19T07:59:25;6.85;;;3.03;;
74920;SDS011;63483;47.384;8.860;2022-12-19T08:01:50;4.70;;;2.00;;
74920;SDS011;63483;47.384;8.860;2022-12-19T08:04:16;4.63;;;2.00;;
74920;SDS011;63483;47.384;8.860;2022-12-19T08:06:41;3.10;;;1.52;;
74920;SDS011;63483;47.384;8.860;2022-12-19T08:09:06;2.70;;;1.40;;
74920;SDS011;63483;47.384;8.860;2022-12-19T08:11:32;4.97;;;3.13;;
74920;SDS011;63483;47.384;8.860;2022-12-19T08:13:57;3.63;;;1.63;;
74920;SDS011;63483;47.384;8.860;2022-12-19T08:16:24;7.30;;;2.00;;
74920;SDS011;63483;47.384;8.860;2022-12-19T08:18:51;4.03;;;2.13;;
74920;SDS011;63483;47.384;8.860;2022-12-19T08:21:16;3.40;;;1.70;;
74920;SDS011;63483;47.384;8.860;2022-12-19T08:23:42;3.70;;;1.90;;
74920;SDS011;63483;47.384;8.860;2022-12-19T08:26:09;3.08;;;1.70;;
74920;SDS011;63483;47.384;8.860;2022-12-19T08:28:36;3.30;;;1.88;;
74920;SDS011;63483;47.384;8.860;2022-12-19T08:31:08;3.47;;;2.10;;
74920;SDS011;63483;47.384;8.860;2022-12-19T08:33:40;3.22;;;2.10;;
74920;SDS011;63483;47.384;8.860;2022-12-19T08:36:12;4.38;;;2.15;;
74920;SDS011;63483;47.384;8.860;2022-12-19T08:38:38;3.70;;;2.22;;
74920;SDS011;63483;47.384;8.860;2022-12-19T08:41:04;3.30;;;2.28;;
74920;SDS011;63483;47.384;8.860;2022-12-19T08:43:30;3.00;;;1.50;;
74920;SDS011;63483;47.384;8.860;2022-12-19T08:45:56;4.80;;;2.37;;
74920;SDS011;63483;47.384;8.860;2022-12-19T08:48:22;4.97;;;2.40;;
74920;SDS011;63483;47.384;8.860;2022-12-19T08:50:58;5.57;;;2.40;;
74920;SDS011;63483;47.384;8.860;2022-12-19T08:53:25;5.05;;;2.72;;
74920;SDS011;63483;47.384;8.860;2022-12-19T08:55:53;4.13;;;2.00;;
74920;SDS011;63483;47.384;8.860;2022-12-19T08:58:19;4.55;;;1.92;;
74920;SDS011;63483;47.384;8.860;2022-12-19T09:00:45;4.93;;;2.27;;
74920;SDS011;63483;47.384;8.860;2022-12-19T09:03:10;6.13;;;3.03;;
74920;SDS011;63483;47.384;8.860;2022-12-19T09:05:36;5.10;;;2.90;;
74920;SDS011;63483;47.384;8.860;2022-12-19T09:08:02;3.78;;;2.22;;
74920;SDS011;63483;47.384;8.860;2022-12-19T09:10:28;4.07;;;2.10;;
74920;SDS011;63483;47.384;8.860;2022-12-19T09:12:55;6.07;;;1.90;;
74920;SDS011;63483;47.384;8.860;2022-12-19T09:15:21;67.60;;;3.75;;
74920;SDS011;63483;47.384;8.860;2022-12-19T09:17:46;19.60;;;2.30;;
74920;SDS011;63483;47.384;8.860;2022-12-19T09:20:11;3.30;;;1.70;;
74920;SDS011;63483;47.384;8.860;2022-12-19T09:22:37;3.40;;;1.37;;
74920;SDS011;63483;47.384;8.860;2022-12-19T09:25:02;3.90;;;2.33;;
74920;SDS011;63483;47.384;8.860;2022-12-19T09:27:28;4.57;;;2.50;;
74920;SDS011;63483;47.384;8.860;2022-12-19T09:29:53;3.53;;;2.30;;
74920;SDS011;63483;47.384;8.860;2022-12-19T09:32:19;3.83;;;2.07;;
74920;SDS011;63483;47.384;8.860;2022-12-19T09:34:44;3.37;;;2.07;;
74920;SDS011;63483;47.384;8.860;2022-12-19T09:37:10;8.20;;;2.10;;
74920;SDS011;63483;47.384;8.860;2022-12-19T09:39:36;5.00;;;2.40;;
74920;SDS011;63483;47.384;8.860;2022-12-19T09:47:23;3.72;;;2.50;;
74920;SDS011;63483;47.384;8.860;2022-12-19T09:49:51;3.80;;;2.53;;
74920;SDS011;63483;47.384;8.860;2022-12-19T09:55:15;3.53;;;2.10;;
74920;SDS011;63483;47.384;8.860;2022-12-19T10:00:44;6.22;;;2.08;;
74920;SDS011;63483;47.384;8.860;2022-12-19T10:03:19;3.90;;;1.80;;
74920;SDS011;63483;47.384;8.860;2022-12-19T10:05:54;4.60;;;2.30;;
74920;SDS011;63483;47.384;8.860;2022-12-19T10:08:26;4.18;;;2.50;;
74920;SDS011;63483;47.384;8.860;2022-12-19T10:19:30;4.13;;;2.45;;
74920;SDS011;63483;47.384;8.860;2022-12-19T10:22:08;4.45;;;2.20;;
74920;SDS011;63483;47.384;8.860;2022-12-19T10:27:36;3.40;;;1.97;;
74920;SDS011;63483;47.384;8.860;2022-12-19T10:30:12;4.13;;;2.13;;
74920;SDS011;63483;47.384;8.860;2022-12-19T10:35:35;3.67;;;2.38;;
74920;SDS011;63483;47.384;8.860;2022-12-19T10:40:37;4.32;;;2.28;;
74920;SDS011;63483;47.384;8.860;2022-12-19T10:46:12;3.50;;;2.23;;
74920;SDS011;63483;47.384;8.860;2022-12-19T10:48:41;3.50;;;2.45;;
74920;SDS011;63483;47.384;8.860;2022-12-19T10:51:13;3.90;;;2.40;;
74920;SDS011;63483;47.384;8.860;2022-12-19T10:53:51;4.45;;;2.25;;
74920;SDS011;63483;47.384;8.860;2022-12-19T10:56:20;3.30;;;2.03;;
74920;SDS011;63483;47.384;8.860;2022-12-19T10:58:51;5.88;;;2.35;;
74920;SDS011;63483;47.384;8.860;2022-12-19T11:09:46;4.45;;;2.40;;
74920;SDS011;63483;47.384;8.860;2022-12-19T11:12:11;3.95;;;2.08;;
74920;SDS011;63483;47.384;8.860;2022-12-19T11:14:39;4.47;;;2.80;;
74920;SDS011;63483;47.384;8.860;2022-12-19T11:19:58;5.95;;;3.08;;
74920;SDS011;63483;47.384;8.860;2022-12-19T11:22:33;9.52;;;2.80;;
74920;SDS011;63483;47.384;8.860;2022-12-19T11:25:00;4.78;;;3.42;;
74920;SDS011;63483;47.384;8.860;2022-12-19T11:29:56;5.10;;;2.90;;
74920;SDS011;63483;47.384;8.860;2022-12-19T11:32:36;5.90;;;2.90;;
74920;SDS011;63483;47.384;8.860;2022-12-19T11:35:10;5.25;;;2.35;;
74920;SDS011;63483;47.384;8.860;2022-12-19T11:37:40;4.55;;;2.40;;
74920;SDS011;63483;47.384;8.860;2022-12-19T11:48:46;4.85;;;2.35;;
74920;SDS011;63483;47.384;8.860;2022-12-19T11:51:17;3.33;;;1.98;;
74920;SDS011;63483;47.384;8.860;2022-12-19T11:56:54;4.43;;;2.70;;
74920;SDS011;63483;47.384;8.860;2022-12-19T11:59:21;5.18;;;2.45;;
74920;SDS011;63483;47.384;8.860;2022-12-19T12:05:04;5.38;;;2.95;;
74920;SDS011;63483;47.384;8.860;2022-12-19T12:07:56;4.15;;;2.63;;
74920;SDS011;63483;47.384;8.860;2022-12-19T12:10:55;4.83;;;3.03;;
74920;SDS011;63483;47.384;8.860;2022-12-19T12:16:10;5.78;;;3.30;;
74920;SDS011;63483;47.384;8.860;2022-12-19T12:21:22;5.35;;;3.55;;
74920;SDS011;63483;47.384;8.860;2022-12-19T12:26:33;4.40;;;2.88;;
74920;SDS011;63483;47.384;8.860;2022-12-19T12:29:02;4.38;;;2.65;;
74920;SDS011;63483;47.384;8.860;2022-12-19T12:39:45;7.88;;;4.50;;
74920;SDS011;63483;47.384;8.860;2022-12-19T12:44:41;6.80;;;4.40;;
74920;SDS011;63483;47.384;8.860;2022-12-19T12:47:17;6.45;;;4.43;;
74920;SDS011;63483;47.384;8.860;2022-12-19T12:49:50;5.83;;;4.23;;
74920;SDS011;63483;47.384;8.860;2022-12-19T12:52:22;7.50;;;4.35;;
74920;SDS011;63483;47.384;8.860;2022-12-19T12:54:56;5.80;;;3.40;;
74920;SDS011;63483;47.384;8.860;2022-12-19T13:00:12;5.07;;;2.40;;
74920;SDS011;63483;47.384;8.860;2022-12-19T13:02:39;6.00;;;3.17;;
74920;SDS011;63483;47.384;8.860;2022-12-19T13:05:50;6.32;;;4.28;;
74920;SDS011;63483;47.384;8.860;2022-12-19T13:10:55;5.25;;;2.95;;
74920;SDS011;63483;47.384;8.860;2022-12-19T13:19:20;6.80;;;3.80;;
74920;SDS011;63483;47.384;8.860;2022-12-19T13:27:30;5.60;;;3.23;;
74920;SDS011;63483;47.384;8.860;2022-12-19T13:32:25;4.80;;;3.20;;
74920;SDS011;63483;47.384;8.860;2022-12-19T13:39:58;4.33;;;2.23;;
74920;SDS011;63483;47.384;8.860;2022-12-19T13:42:26;4.00;;;2.38;;
74920;SDS011;63483;47.384;8.860;2022-12-19T13:45:15;4.93;;;3.25;;
74920;SDS011;63483;47.384;8.860;2022-12-19T13:47:44;4.68;;;3.17;;
74920;SDS011;63483;47.384;8.860;2022-12-19T13:50:29;4.05;;;2.22;;
74920;SDS011;63483;47.384;8.860;2022-12-19T13:52:57;5.13;;;2.40;;
74920;SDS011;63483;47.384;8.860;2022-12-19T13:55:23;5.05;;;2.22;;
74920;SDS011;63483;47.384;8.860;2022-12-19T13:57:52;5.15;;;2.70;;
74920;SDS011;63483;47.384;8.860;2022-12-19T14:00:31;3.93;;;2.27;;
74920;SDS011;63483;47.384;8.860;2022-12-19T14:03:00;4.10;;;2.10;;
74920;SDS011;63483;47.384;8.860;2022-12-19T14:05:28;4.28;;;2.67;;
74920;SDS011;63483;47.384;8.860;2022-12-19T14:07:56;5.45;;;2.90;;
74920;SDS011;63483;47.384;8.860;2022-12-19T14:10:31;11.15;;;5.75;;
74920;SDS011;63483;47.384;8.860;2022-12-19T14:13:07;9.53;;;5.57;;
74920;SDS011;63483;47.384;8.860;2022-12-19T14:15:58;7.93;;;4.28;;
74920;SDS011;63483;47.384;8.860;2022-12-19T14:18:24;5.70;;;3.00;;
74920;SDS011;63483;47.384;8.860;2022-12-19T14:23:51;3.60;;;2.22;;
74920;SDS011;63483;47.384;8.860;2022-12-19T14:26:32;3.60;;;2.10;;
74920;SDS011;63483;47.384;8.860;2022-12-19T14:29:03;3.20;;;1.73;;
74920;SDS011;63483;47.384;8.860;2022-12-19T14:31:37;4.45;;;2.60;;
74920;SDS011;63483;47.384;8.860;2022-12-19T14:34:05;3.97;;;2.00;;
74920;SDS011;63483;47.384;8.860;2022-12-19T14:37:02;4.20;;;2.75;;
74920;SDS011;63483;47.384;8.860;2022-12-19T14:39:31;2.80;;;1.70;;
74920;SDS011;63483;47.384;8.860;2022-12-19T14:42:12;3.42;;;1.90;;
74920;SDS011;63483;47.384;8.860;2022-12-19T14:44:59;3.42;;;2.08;;
74920;SDS011;63483;47.384;8.860;2022-12-19T14:47:34;3.53;;;2.50;;
74920;SDS011;63483;47.384;8.860;2022-12-19T14:50:24;3.35;;;2.10;;
74920;SDS011;63483;47.384;8.860;2022-12-19T14:53:16;4.88;;;1.98;;
74920;SDS011;63483;47.384;8.860;2022-12-19T14:55:43;3.00;;;1.55;;
74920;SDS011;63483;47.384;8.860;2022-12-19T14:58:16;4.30;;;2.03;;
74920;SDS011;63483;47.384;8.860;2022-12-19T15:00:49;3.10;;;1.92;;
74920;SDS011;63483;47.384;8.860;2022-12-19T15:03:17;3.50;;;2.67;;
74920;SDS011;63483;47.384;8.860;2022-12-19T15:05:47;3.60;;;2.42;;
74920;SDS011;63483;47.384;8.860;2022-12-19T15:08:15;4.30;;;3.20;;
74920;SDS011;63483;47.384;8.860;2022-12-19T15:10:56;5.18;;;3.17;;
74920;SDS011;63483;47.384;8.860;2022-12-19T15:13:24;4.10;;;3.00;;
74920;SDS011;63483;47.384;8.860;2022-12-19T15:15:53;4.57;;;3.70;;
74920;SDS011;63483;47.384;8.860;2022-12-19T15:18:27;6.55;;;3.75;;
74920;SDS011;63483;47.384;8.860;2022-12-19T15:21:12;5.83;;;3.80;;
74920;SDS011;63483;47.384;8.860;2022-12-19T15:23:38;5.57;;;3.42;;
74920;SDS011;63483;47.384;8.860;2022-12-19T15:26:05;4.53;;;3.20;;
74920;SDS011;63483;47.384;8.860;2022-12-19T15:28:38;3.92;;;2.90;;
74920;SDS011;63483;47.384;8.860;2022-12-19T15:33:59;4.30;;;3.00;;
74920;SDS011;63483;47.384;8.860;2022-12-19T15:36:43;4.85;;;3.05;;
74920;SDS011;63483;47.384;8.860;2022-12-19T15:39:08;4.33;;;2.80;;
74920;SDS011;63483;47.384;8.860;2022-12-19T15:41:34;3.53;;;2.37;;
74920;SDS011;63483;47.384;8.860;2022-12-19T15:44:03;4.82;;;2.10;;
74920;SDS011;63483;47.384;8.860;2022-12-19T15:46:33;6.25;;;2.80;;
74920;SDS011;63483;47.384;8.860;2022-12-19T15:48:59;3.42;;;2.30;;
74920;SDS011;63483;47.384;8.860;2022-12-19T15:51:25;3.50;;;2.10;;
74920;SDS011;63483;47.384;8.860;2022-12-19T15:53:50;6.90;;;4.33;;
74920;SDS011;63483;47.384;8.860;2022-12-19T15:56:26;14.30;;;6.60;;
74920;SDS011;63483;47.384;8.860;2022-12-19T15:58:55;9.43;;;4.82;;
74920;SDS011;63483;47.384;8.860;2022-12-19T16:01:22;7.97;;;3.88;;
74920;SDS011;63483;47.384;8.860;2022-12-19T16:03:48;8.35;;;4.18;;
74920;SDS011;63483;47.384;8.860;2022-12-19T16:06:14;5.60;;;4.23;;
74920;SDS011;63483;47.384;8.860;2022-12-19T16:08:40;5.38;;;3.25;;
74920;SDS011;63483;47.384;8.860;2022-12-19T16:11:08;5.37;;;2.73;;
74920;SDS011;63483;47.384;8.860;2022-12-19T16:13:41;5.30;;;2.80;;
74920;SDS011;63483;47.384;8.860;2022-12-19T16:16:11;6.20;;;3.25;;
74920;SDS011;63483;47.384;8.860;2022-12-19T16:18:36;5.47;;;3.17;;
74920;SDS011;63483;47.384;8.860;2022-12-19T16:21:02;8.23;;;4.20;;
74920;SDS011;63483;47.384;8.860;2022-12-19T16:23:27;8.80;;;4.87;;
74920;SDS011;63483;47.384;8.860;2022-12-19T16:25:52;5.27;;;3.63;;
74920;SDS011;63483;47.384;8.860;2022-12-19T16:28:24;4.87;;;2.67;;
74920;SDS011;63483;47.384;8.860;2022-12-19T16:30:54;5.18;;;3.30;;
74920;SDS011;63483;47.384;8.860;2022-12-19T16:33:27;5.35;;;3.10;;
74920;SDS011;63483;47.384;8.860;2022-12-19T16:35:54;16.13;;;8.55;;
74920;SDS011;63483;47.384;8.860;2022-12-19T16:38:21;16.50;;;9.70;;
74920;SDS011;63483;47.384;8.860;2022-12-19T16:40:47;14.32;;;7.97;;
74920;SDS011;63483;47.384;8.860;2022-12-19T16:43:16;9.20;;;4.82;;
74920;SDS011;63483;47.384;8.860;2022-12-19T16:45:51;7.75;;;4.13;;
74920;SDS011;63483;47.384;8.860;2022-12-19T16:48:17;4.80;;;3.13;;
74920;SDS011;63483;47.384;8.860;2022-12-19T16:50:44;5.65;;;3.10;;
74920;SDS011;63483;47.384;8.860;2022-12-19T16:53:09;5.80;;;3.40;;
74920;SDS011;63483;47.384;8.860;2022-12-19T16:55:35;6.67;;;3.83;;
74920;SDS011;63483;47.384;8.860;2022-12-19T16:58:00;5.43;;;3.00;;
74920;SDS011;63483;47.384;8.860;2022-12-19T17:00:26;74.95;;;5.85;;
74920;SDS011;63483;47.384;8.860;2022-12-19T17:02:52;6.47;;;3.20;;
74920;SDS011;63483;47.384;8.860;2022-12-19T17:05:22;5.07;;;3.42;;
74920;SDS011;63483;47.384;8.860;2022-12-19T17:07:50;4.40;;;2.97;;
74920;SDS011;63483;47.384;8.860;2022-12-19T17:10:16;5.57;;;3.38;;
74920;SDS011;63483;47.384;8.860;2022-12-19T17:12:43;5.90;;;4.30;;
74920;SDS011;63483;47.384;8.860;2022-12-19T17:15:29;5.25;;;2.78;;
74920;SDS011;63483;47.384;8.860;2022-12-19T17:17:58;5.82;;;3.22;;
74920;SDS011;63483;47.384;8.860;2022-12-19T17:20:27;8.00;;;4.63;;